sensor_id;sensor_type;location;lat;lon;timestamp;pressure;altitude;pressure_sealevel;temperature;humidity
23341;BME280;12239;53.404;23.492;2023-04-06T00:01:50;78817.14;;;-147.78;76.12
23341;BME280;12239;53.404;23.492;2023-04-06T00:04:19;78820.02;;;-147.78;76.17
23341;BME280;12239;53.404;23.492;2023-04-06T00:06:49;78818.78;;;-147.78;76.27
23341;BME280;12239;53.404;23.492;2023-04-06T00:09:18;78815.91;;;-147.78;76.27
23341;BME280;12239;53.404;23.492;2023-04-06T00:11:48;78817.55;;;-147.78;76.48
23341;BME280;12239;53.404;23.492;2023-04-06T00:14:17;78814.27;;;-147.78;76.45
23341;BME280;12239;53.404;23.492;2023-04-06T00:16:46;78811.40;;;-147.78;76.68
23341;BME280;12239;53.404;23.492;2023-04-06T00:19:18;78809.77;;;-147.78;76.86
23341;BME280;12239;53.404;23.492;2023-04-06T00:21:48;78808.54;;;-147.78;76.76
23341;BME280;12239;53.404;23.492;2023-04-06T00:24:17;78808.11;;;-147.78;77.17
23341;BME280;12239;53.404;23.492;2023-04-06T00:26:47;78808.53;;;-147.78;76.99
23341;BME280;12239;53.404;23.492;2023-04-06T00:29:36;78810.58;;;-147.78;77.50
23341;BME280;12239;53.404;23.492;2023-04-06T00:32:26;78811.81;;;-147.78;77.79
23341;BME280;12239;53.404;23.492;2023-04-06T00:34:56;78813.05;;;-147.78;78.11
23341;BME280;12239;53.404;23.492;2023-04-06T00:37:25;78815.51;;;-147.78;78.24
23341;BME280;12239;53.404;23.492;2023-04-06T00:39:54;78817.55;;;-147.78;78.53
23341;BME280;12239;53.404;23.492;2023-04-06T00:42:24;78817.14;;;-147.78;79.06
23341;BME280;12239;53.404;23.492;2023-04-06T00:44:54;78823.30;;;-147.78;79.49
23341;BME280;12239;53.404;23.492;2023-04-06T00:47:24;78825.77;;;-147.78;79.85
23341;BME280;12239;53.404;23.492;2023-04-06T00:49:54;78824.53;;;-147.78;80.25
23341;BME280;12239;53.404;23.492;2023-04-06T00:52:26;78820.42;;;-147.78;80.73
23341;BME280;12239;53.404;23.492;2023-04-06T00:54:56;78814.69;;;-147.78;80.38
23341;BME280;12239;53.404;23.492;2023-04-06T00:57:28;78808.94;;;-147.78;80.66
23341;BME280;12239;53.404;23.492;2023-04-06T00:59:57;78809.35;;;-147.78;80.68
23341;BME280;12239;53.404;23.492;2023-04-06T01:02:26;78805.66;;;-147.78;80.56
23341;BME280;12239;53.404;23.492;2023-04-06T01:04:56;78806.07;;;-147.78;80.87
23341;BME280;12239;53.404;23.492;2023-04-06T01:07:25;78801.14;;;-147.78;81.07
23341;BME280;12239;53.404;23.492;2023-04-06T01:09:54;78799.50;;;-147.78;81.11
23341;BME280;12239;53.404;23.492;2023-04-06T01:12:24;78798.27;;;-147.78;81.12
23341;BME280;12239;53.404;23.492;2023-04-06T01:15:14;78800.33;;;-147.78;81.57
23341;BME280;12239;53.404;23.492;2023-04-06T01:17:43;78797.86;;;-147.78;81.61
23341;BME280;12239;53.404;23.492;2023-04-06T01:20:13;78794.16;;;-147.78;81.76
23341;BME280;12239;53.404;23.492;2023-04-06T01:22:42;78793.77;;;-147.78;81.77
23341;BME280;12239;53.404;23.492;2023-04-06T01:25:12;78796.23;;;-147.78;81.63
23341;BME280;12239;53.404;23.492;2023-04-06T01:27:41;78790.08;;;-147.78;82.02
23341;BME280;12239;53.404;23.492;2023-04-06T01:30:11;78783.92;;;-147.78;81.90
23341;BME280;12239;53.404;23.492;2023-04-06T01:32:40;78783.91;;;-147.78;81.80
23341;BME280;12239;53.404;23.492;2023-04-06T01:35:10;78779.41;;;-147.78;81.81
23341;BME280;12239;53.404;23.492;2023-04-06T01:37:39;78776.52;;;-147.78;81.59
23341;BME280;12239;53.404;23.492;2023-04-06T01:40:09;78771.61;;;-147.78;81.09
23341;BME280;12239;53.404;23.492;2023-04-06T01:42:39;78767.10;;;-147.78;80.71
23341;BME280;12239;53.404;23.492;2023-04-06T01:45:09;78760.95;;;-147.78;80.52
23341;BME280;12239;53.404;23.492;2023-04-06T01:47:38;78756.02;;;-147.78;80.02
23341;BME280;12239;53.404;23.492;2023-04-06T01:50:28;78751.91;;;-147.78;79.84
23341;BME280;12239;53.404;23.492;2023-04-06T01:52:58;78751.51;;;-147.78;79.82
23341;BME280;12239;53.404;23.492;2023-04-06T01:55:30;78749.45;;;-147.78;79.85
23341;BME280;12239;53.404;23.492;2023-04-06T01:58:07;78748.23;;;-147.78;79.76
23341;BME280;12239;53.404;23.492;2023-04-06T02:00:36;78745.77;;;-147.78;79.96
23341;BME280;12239;53.404;23.492;2023-04-06T02:03:06;78745.77;;;-147.78;80.30
23341;BME280;12239;53.404;23.492;2023-04-06T02:05:35;78743.30;;;-147.78;80.23
23341;BME280;12239;53.404;23.492;2023-04-06T02:08:26;78741.66;;;-147.78;80.17
23341;BME280;12239;53.404;23.492;2023-04-06T02:10:55;78735.92;;;-147.78;80.05
23341;BME280;12239;53.404;23.492;2023-04-06T02:13:24;78733.05;;;-147.78;80.45
23341;BME280;12239;53.404;23.492;2023-04-06T02:15:54;78728.54;;;-147.78;80.52
23341;BME280;12239;53.404;23.492;2023-04-06T02:18:26;78725.66;;;-147.78;81.18
23341;BME280;12239;53.404;23.492;2023-04-06T02:21:13;78726.89;;;-147.78;81.92
23341;BME280;12239;53.404;23.492;2023-04-06T02:23:49;78730.99;;;-147.78;82.09
23341;BME280;12239;53.404;23.492;2023-04-06T02:26:19;78728.54;;;-147.78;82.66
23341;BME280;12239;53.404;23.492;2023-04-06T02:29:09;78730.59;;;-147.78;83.00
23341;BME280;12239;53.404;23.492;2023-04-06T02:31:38;78729.35;;;-147.78;84.31
23341;BME280;12239;53.404;23.492;2023-04-06T02:34:11;78730.59;;;-147.78;86.46
23341;BME280;12239;53.404;23.492;2023-04-06T02:36:46;78734.28;;;-147.78;89.64
23341;BME280;12239;53.404;23.492;2023-04-06T02:39:15;78737.56;;;-147.78;91.11
23341;BME280;12239;53.404;23.492;2023-04-06T02:41:45;78738.79;;;-147.78;93.40
23341;BME280;12239;53.404;23.492;2023-04-06T02:44:14;78736.33;;;-147.78;93.85
23341;BME280;12239;53.404;23.492;2023-04-06T02:46:46;78733.45;;;-147.78;94.94
23341;BME280;12239;53.404;23.492;2023-04-06T02:49:15;78736.33;;;-147.78;95.97
23341;BME280;12239;53.404;23.492;2023-04-06T02:51:45;78742.08;;;-147.78;97.37
23341;BME280;12239;53.404;23.492;2023-04-06T02:54:16;78750.28;;;-147.78;98.25
23341;BME280;12239;53.404;23.492;2023-04-06T02:56:46;78747.41;;;-147.78;98.09
23341;BME280;12239;53.404;23.492;2023-04-06T02:59:15;78747.40;;;-147.78;99.72
23341;BME280;12239;53.404;23.492;2023-04-06T03:01:44;78752.33;;;-147.78;100.00
23341;BME280;12239;53.404;23.492;2023-04-06T03:04:14;78754.38;;;-147.78;100.00
23341;BME280;12239;53.404;23.492;2023-04-06T03:06:43;78758.48;;;-147.78;100.00
23341;BME280;12239;53.404;23.492;2023-04-06T03:09:12;78756.43;;;-147.78;100.00
23341;BME280;12239;53.404;23.492;2023-04-06T03:11:42;78761.77;;;-147.78;100.00
23341;BME280;12239;53.404;23.492;2023-04-06T03:14:11;78761.35;;;-147.78;100.00
23341;BME280;12239;53.404;23.492;2023-04-06T03:16:41;78758.48;;;-147.78;100.00
23341;BME280;12239;53.404;23.492;2023-04-06T03:22:26;78756.42;;;-147.78;100.00
23341;BME280;12239;53.404;23.492;2023-04-06T03:24:56;78758.48;;;-147.78;100.00
23341;BME280;12239;53.404;23.492;2023-04-06T03:27:26;78761.77;;;-147.78;100.00
23341;BME280;12239;53.404;23.492;2023-04-06T03:29:58;78765.05;;;-147.78;100.00
23341;BME280;12239;53.404;23.492;2023-04-06T03:32:32;78767.92;;;-147.78;100.00
23341;BME280;12239;53.404;23.492;2023-04-06T03:35:02;78766.27;;;-147.78;100.00
23341;BME280;12239;53.404;23.492;2023-04-06T03:37:31;78767.10;;;-147.78;100.00
23341;BME280;12239;53.404;23.492;2023-04-06T03:40:00;78766.27;;;-147.78;100.00
23341;BME280;12239;53.404;23.492;2023-04-06T03:42:30;78764.23;;;-147.78;100.00
23341;BME280;12239;53.404;23.492;2023-04-06T03:45:00;78762.99;;;-147.78;100.00
23341;BME280;12239;53.404;23.492;2023-04-06T03:47:30;78762.99;;;-147.78;100.00
23341;BME280;12239;53.404;23.492;2023-04-06T03:49:59;78760.54;;;-147.78;100.00
23341;BME280;12239;53.404;23.492;2023-04-06T03:52:28;78761.35;;;-147.78;100.00
23341;BME280;12239;53.404;23.492;2023-04-06T03:54:58;78763.81;;;-147.78;100.00
23341;BME280;12239;53.404;23.492;2023-04-06T03:57:27;78769.15;;;-147.78;100.00
23341;BME280;12239;53.404;23.492;2023-04-06T03:59:57;78764.23;;;-147.78;100.00
23341;BME280;12239;53.404;23.492;2023-04-06T04:02:26;78765.45;;;-147.78;100.00
23341;BME280;12239;53.404;23.492;2023-04-06T04:04:56;78763.81;;;-147.78;100.00
23341;BME280;12239;53.404;23.492;2023-04-06T04:07:25;78763.41;;;-147.78;100.00
23341;BME280;12239;53.404;23.492;2023-04-06T04:09:54;78763.41;;;-147.78;100.00
23341;BME280;12239;53.404;23.492;2023-04-06T04:12:26;78767.10;;;-147.78;100.00
23341;BME280;12239;53.404;23.492;2023-04-06T04:14:55;78765.46;;;-147.78;100.00
23341;BME280;12239;53.404;23.492;2023-04-06T04:17:24;78765.45;;;-147.78;100.00
23341;BME280;12239;53.404;23.492;2023-04-06T04:19:53;78768.73;;;-147.78;100.00
23341;BME280;12239;53.404;23.492;2023-04-06T04:22:23;78769.55;;;-147.78;100.00
23341;BME280;12239;53.404;23.492;2023-04-06T04:24:52;78765.05;;;-147.78;100.00
23341;BME280;12239;53.404;23.492;2023-04-06T04:27:21;78763.00;;;-147.78;100.00
23341;BME280;12239;53.404;23.492;2023-04-06T04:29:54;78757.66;;;-147.78;100.00
23341;BME280;12239;53.404;23.492;2023-04-06T04:32:23;78756.84;;;-147.78;100.00
23341;BME280;12239;53.404;23.492;2023-04-06T04:34:55;78755.61;;;-147.78;100.00
23341;BME280;12239;53.404;23.492;2023-04-06T04:37:24;78756.02;;;-147.78;100.00
23341;BME280;12239;53.404;23.492;2023-04-06T04:39:54;78752.73;;;-147.78;100.00
23341;BME280;12239;53.404;23.492;2023-04-06T04:42:23;78752.73;;;-147.78;100.00
23341;BME280;12239;53.404;23.492;2023-04-06T04:44:52;78750.27;;;-147.78;100.00
23341;BME280;12239;53.404;23.492;2023-04-06T04:47:22;78748.23;;;-147.78;100.00
23341;BME280;12239;53.404;23.492;2023-04-06T04:49:51;78743.31;;;-147.78;100.00
23341;BME280;12239;53.404;23.492;2023-04-06T04:52:21;78741.66;;;-147.78;100.00
23341;BME280;12239;53.404;23.492;2023-04-06T04:55:10;78739.20;;;-147.78;100.00
23341;BME280;12239;53.404;23.492;2023-04-06T04:57:40;78736.33;;;-147.78;100.00
23341;BME280;12239;53.404;23.492;2023-04-06T05:00:10;78731.00;;;-147.78;100.00
23341;BME280;12239;53.404;23.492;2023-04-06T05:02:39;78728.13;;;-147.78;100.00
23341;BME280;12239;53.404;23.492;2023-04-06T05:05:09;78728.13;;;-147.78;100.00
23341;BME280;12239;53.404;23.492;2023-04-06T05:07:38;78727.30;;;-147.78;100.00
23341;BME280;12239;53.404;23.492;2023-04-06T05:10:09;78725.66;;;-147.78;100.00
23341;BME280;12239;53.404;23.492;2023-04-06T05:12:38;78722.39;;;-147.78;100.00
23341;BME280;12239;53.404;23.492;2023-04-06T05:15:08;78723.61;;;-147.78;100.00
23341;BME280;12239;53.404;23.492;2023-04-06T05:17:38;78719.92;;;-147.78;100.00
23341;BME280;12239;53.404;23.492;2023-04-06T05:20:08;78716.23;;;-147.78;100.00
23341;BME280;12239;53.404;23.492;2023-04-06T05:22:57;78711.72;;;-147.78;100.00
23341;BME280;12239;53.404;23.492;2023-04-06T05:25:27;78710.48;;;-147.78;100.00
23341;BME280;12239;53.404;23.492;2023-04-06T05:27:57;78702.69;;;-147.78;100.00
23341;BME280;12239;53.404;23.492;2023-04-06T05:30:26;78693.26;;;-147.78;100.00
23341;BME280;12239;53.404;23.492;2023-04-06T05:32:58;78689.15;;;-147.78;100.00
23341;BME280;12239;53.404;23.492;2023-04-06T05:35:30;78685.46;;;-147.78;100.00
23341;BME280;12239;53.404;23.492;2023-04-06T05:37:59;78683.83;;;-147.78;100.00
23341;BME280;12239;53.404;23.492;2023-04-06T05:40:49;78683.00;;;-147.78;100.00
23341;BME280;12239;53.404;23.492;2023-04-06T05:43:19;78682.59;;;-147.78;100.00
23341;BME280;12239;53.404;23.492;2023-04-06T05:46:08;78685.05;;;-147.78;100.00
23341;BME280;12239;53.404;23.492;2023-04-06T05:48:45;78680.55;;;-147.78;100.00
23341;BME280;12239;53.404;23.492;2023-04-06T05:51:14;78664.13;;;-147.78;100.00
23341;BME280;12239;53.404;23.492;2023-04-06T05:53:44;78669.88;;;-147.78;100.00
23341;BME280;12239;53.404;23.492;2023-04-06T05:56:14;78674.39;;;-147.78;100.00
23341;BME280;12239;53.404;23.492;2023-04-06T05:58:43;78661.26;;;-147.78;100.00
23341;BME280;12239;53.404;23.492;2023-04-06T06:01:13;78656.74;;;-147.78;100.00
23341;BME280;12239;53.404;23.492;2023-04-06T06:03:46;78659.21;;;-147.78;100.00
23341;BME280;12239;53.404;23.492;2023-04-06T06:06:15;78657.16;;;-147.78;100.00
23341;BME280;12239;53.404;23.492;2023-04-06T06:08:45;78653.05;;;-147.78;100.00
23341;BME280;12239;53.404;23.492;2023-04-06T06:11:35;78647.31;;;-147.78;100.00
23341;BME280;12239;53.404;23.492;2023-04-06T06:14:05;78647.71;;;-147.78;100.00
23341;BME280;12239;53.404;23.492;2023-04-06T06:16:34;78642.80;;;-147.78;100.00
23341;BME280;12239;53.404;23.492;2023-04-06T06:19:04;78645.26;;;-147.78;100.00
23341;BME280;12239;53.404;23.492;2023-04-06T06:21:36;78641.56;;;-147.78;100.00
23341;BME280;12239;53.404;23.492;2023-04-06T06:24:06;78636.23;;;-147.78;100.00
23341;BME280;12239;53.404;23.492;2023-04-06T06:26:35;78630.48;;;-147.78;100.00
23341;BME280;12239;53.404;23.492;2023-04-06T06:29:07;78631.73;;;-147.78;100.00
23341;BME280;12239;53.404;23.492;2023-04-06T06:31:57;78629.27;;;-147.78;100.00
23341;BME280;12239;53.404;23.492;2023-04-06T06:34:26;78621.47;;;-147.78;100.00
23341;BME280;12239;53.404;23.492;2023-04-06T06:36:55;78619.41;;;-147.78;100.00
23341;BME280;12239;53.404;23.492;2023-04-06T06:39:45;78617.77;;;-147.78;100.00
23341;BME280;12239;53.404;23.492;2023-04-06T06:42:17;78616.96;;;-147.78;100.00
23341;BME280;12239;53.404;23.492;2023-04-06T06:44:46;78610.80;;;-147.78;100.00
23341;BME280;12239;53.404;23.492;2023-04-06T06:47:16;78602.60;;;-147.78;100.00
23341;BME280;12239;53.404;23.492;2023-04-06T06:49:48;78597.27;;;-147.78;100.00
23341;BME280;12239;53.404;23.492;2023-04-06T06:52:18;78593.98;;;-147.78;100.00
23341;BME280;12239;53.404;23.492;2023-04-06T06:54:48;78588.66;;;-147.78;100.00
23341;BME280;12239;53.404;23.492;2023-04-06T06:57:17;78582.91;;;-147.78;100.00
23341;BME280;12239;53.404;23.492;2023-04-06T06:59:47;78580.86;;;-147.78;100.00
23341;BME280;12239;53.404;23.492;2023-04-06T07:02:16;78585.38;;;-147.78;100.00
23341;BME280;12239;53.404;23.492;2023-04-06T07:04:48;78578.80;;;-147.78;100.00
23341;BME280;12239;53.404;23.492;2023-04-06T07:07:17;78576.35;;;-147.78;100.00
23341;BME280;12239;53.404;23.492;2023-04-06T07:09:47;78572.25;;;-147.78;100.00
23341;BME280;12239;53.404;23.492;2023-04-06T07:12:16;78570.60;;;-147.78;100.00
23341;BME280;12239;53.404;23.492;2023-04-06T07:14:45;78566.50;;;-147.78;100.00
23341;BME280;12239;53.404;23.492;2023-04-06T07:17:14;78562.40;;;-147.78;100.00
23341;BME280;12239;53.404;23.492;2023-04-06T07:19:44;78559.11;;;-147.78;100.00
23341;BME280;12239;53.404;23.492;2023-04-06T07:22:14;78561.58;;;-147.78;100.00
23341;BME280;12239;53.404;23.492;2023-04-06T07:24:43;78568.14;;;-147.78;100.00
23341;BME280;12239;53.404;23.492;2023-04-06T07:27:12;78567.32;;;-147.78;100.00
23341;BME280;12239;53.404;23.492;2023-04-06T07:29:42;78563.63;;;-147.78;100.00
23341;BME280;12239;53.404;23.492;2023-04-06T07:32:14;78552.96;;;-147.78;100.00
23341;BME280;12239;53.404;23.492;2023-04-06T07:35:04;78543.94;;;-147.78;100.00
23341;BME280;12239;53.404;23.492;2023-04-06T07:37:33;78546.81;;;-147.78;100.00
23341;BME280;12239;53.404;23.492;2023-04-06T07:40:04;78547.63;;;-147.78;100.00
23341;BME280;12239;53.404;23.492;2023-04-06T07:45:03;78541.48;;;-147.78;100.00
23341;BME280;12239;53.404;23.492;2023-04-06T07:47:32;78541.89;;;-147.78;100.00
23341;BME280;12239;53.404;23.492;2023-04-06T07:50:02;78543.12;;;-147.78;100.00
23341;BME280;12239;53.404;23.492;2023-04-06T07:52:31;78544.35;;;-147.78;100.00
23341;BME280;12239;53.404;23.492;2023-04-06T07:55:00;78541.88;;;-147.78;100.00
23341;BME280;12239;53.404;23.492;2023-04-06T07:57:30;78537.37;;;-147.78;100.00
23341;BME280;12239;53.404;23.492;2023-04-06T07:59:59;78529.98;;;-147.78;100.00
23341;BME280;12239;53.404;23.492;2023-04-06T08:02:28;78531.23;;;-147.78;100.00
23341;BME280;12239;53.404;23.492;2023-04-06T08:05:01;78525.89;;;-147.78;100.00
23341;BME280;12239;53.404;23.492;2023-04-06T08:07:33;78524.25;;;-147.78;100.00
23341;BME280;12239;53.404;23.492;2023-04-06T08:10:02;78520.56;;;-147.78;100.00
23341;BME280;12239;53.404;23.492;2023-04-06T08:12:32;78506.61;;;-147.78;100.00
23341;BME280;12239;53.404;23.492;2023-04-06T08:15:01;78498.81;;;-147.78;100.00
23341;BME280;12239;53.404;23.492;2023-04-06T08:17:32;78493.48;;;-147.78;100.00
23341;BME280;12239;53.404;23.492;2023-04-06T08:20:05;78492.66;;;-147.78;100.00
23341;BME280;12239;53.404;23.492;2023-04-06T08:22:35;78486.10;;;-147.78;100.00
23341;BME280;12239;53.404;23.492;2023-04-06T08:25:05;78486.10;;;-147.78;100.00
23341;BME280;12239;53.404;23.492;2023-04-06T08:27:34;78488.56;;;-147.78;100.00
23341;BME280;12239;53.404;23.492;2023-04-06T08:30:04;78484.05;;;-147.78;100.00
23341;BME280;12239;53.404;23.492;2023-04-06T08:32:34;78479.53;;;-147.78;100.00
23341;BME280;12239;53.404;23.492;2023-04-06T08:35:05;78475.44;;;-147.78;100.00
23341;BME280;12239;53.404;23.492;2023-04-06T08:37:34;78474.61;;;-147.78;100.00
23341;BME280;12239;53.404;23.492;2023-04-06T08:40:05;78469.70;;;-147.78;100.00
23341;BME280;12239;53.404;23.492;2023-04-06T08:42:37;78466.41;;;-147.78;100.00
23341;BME280;12239;53.404;23.492;2023-04-06T08:45:09;78456.16;;;-147.78;100.00
23341;BME280;12239;53.404;23.492;2023-04-06T08:47:38;78449.18;;;-147.78;100.00
23341;BME280;12239;53.404;23.492;2023-04-06T08:50:09;78438.52;;;-147.78;100.00
23341;BME280;12239;53.404;23.492;2023-04-06T08:52:39;78424.57;;;-147.78;100.00
23341;BME280;12239;53.404;23.492;2023-04-06T08:55:09;78413.91;;;-147.78;100.00
23341;BME280;12239;53.404;23.492;2023-04-06T08:57:39;78396.67;;;-147.78;100.00
23341;BME280;12239;53.404;23.492;2023-04-06T09:00:09;78392.98;;;-147.78;100.00
23341;BME280;12239;53.404;23.492;2023-04-06T09:02:42;78403.65;;;-147.78;100.00
23341;BME280;12239;53.404;23.492;2023-04-06T09:05:12;78390.11;;;-147.78;100.00
23341;BME280;12239;53.404;23.492;2023-04-06T09:07:42;78391.35;;;-147.78;100.00
23341;BME280;12239;53.404;23.492;2023-04-06T09:10:11;78393.81;;;-147.78;100.00
23341;BME280;12239;53.404;23.492;2023-04-06T09:12:43;78390.52;;;-147.78;100.00
23341;BME280;12239;53.404;23.492;2023-04-06T09:15:19;78386.02;;;-147.78;100.00
23341;BME280;12239;53.404;23.492;2023-04-06T09:17:48;78388.06;;;-147.78;100.00
23341;BME280;12239;53.404;23.492;2023-04-06T09:20:23;78383.96;;;-147.78;100.00
23341;BME280;12239;53.404;23.492;2023-04-06T09:22:54;78378.21;;;-147.78;100.00
23341;BME280;12239;53.404;23.492;2023-04-06T09:25:24;78377.80;;;-147.78;100.00
23341;BME280;12239;53.404;23.492;2023-04-06T09:28:01;78372.88;;;-147.78;100.00
23341;BME280;12239;53.404;23.492;2023-04-06T09:30:31;78370.02;;;-147.78;100.00
23341;BME280;12239;53.404;23.492;2023-04-06T09:33:03;78372.07;;;-147.78;100.00
23341;BME280;12239;53.404;23.492;2023-04-06T09:35:32;78366.32;;;-147.78;100.00
23341;BME280;12239;53.404;23.492;2023-04-06T09:38:09;78358.94;;;-147.78;100.00
23341;BME280;12239;53.404;23.492;2023-04-06T09:40:48;78329.40;;;-147.78;100.00
23341;BME280;12239;53.404;23.492;2023-04-06T09:43:26;78307.67;;;-147.78;100.00
23341;BME280;12239;53.404;23.492;2023-04-06T09:45:59;78301.52;;;-147.78;100.00
23341;BME280;12239;53.404;23.492;2023-04-06T09:48:32;78293.30;;;-147.78;100.00
23341;BME280;12239;53.404;23.492;2023-04-06T09:51:06;78288.80;;;-147.78;100.00
23341;BME280;12239;53.404;23.492;2023-04-06T09:53:56;78286.75;;;-147.78;100.00
23341;BME280;12239;53.404;23.492;2023-04-06T09:56:50;78272.80;;;-147.78;100.00
23341;BME280;12239;53.404;23.492;2023-04-06T09:59:24;78257.22;;;-147.78;100.00
23341;BME280;12239;53.404;23.492;2023-04-06T10:01:54;78242.86;;;-147.78;100.00
23341;BME280;12239;53.404;23.492;2023-04-06T10:04:28;78227.27;;;-147.78;100.00
23341;BME280;12239;53.404;23.492;2023-04-06T10:07:05;78220.71;;;-147.78;100.00
23341;BME280;12239;53.404;23.492;2023-04-06T10:09:36;78221.11;;;-147.78;100.00
23341;BME280;12239;53.404;23.492;2023-04-06T10:12:09;78211.68;;;-147.78;100.00
23341;BME280;12239;53.404;23.492;2023-04-06T10:14:59;78213.73;;;-147.78;100.00
23341;BME280;12239;53.404;23.492;2023-04-06T10:17:29;78205.53;;;-147.78;100.00
23341;BME280;12239;53.404;23.492;2023-04-06T10:19:59;78206.35;;;-147.78;100.00
23341;BME280;12239;53.404;23.492;2023-04-06T10:22:53;78210.45;;;-147.78;100.00
23341;BME280;12239;53.404;23.492;2023-04-06T10:25:28;78198.98;;;-147.78;100.00
23341;BME280;12239;53.404;23.492;2023-04-06T10:28:01;78202.66;;;-147.78;100.00
23341;BME280;12239;53.404;23.492;2023-04-06T10:30:34;78201.02;;;-147.78;100.00
23341;BME280;12239;53.404;23.492;2023-04-06T10:33:23;78200.61;;;-147.78;100.00
23341;BME280;12239;53.404;23.492;2023-04-06T10:35:53;78193.23;;;-147.78;100.00
23341;BME280;12239;53.404;23.492;2023-04-06T10:38:26;78197.33;;;-147.78;100.00
23341;BME280;12239;53.404;23.492;2023-04-06T10:41:04;78197.33;;;-147.78;100.00
23341;BME280;12239;53.404;23.492;2023-04-06T10:43:34;78189.54;;;-147.78;100.00
23341;BME280;12239;53.404;23.492;2023-04-06T10:46:05;78195.69;;;-147.78;100.00
23341;BME280;12239;53.404;23.492;2023-04-06T10:48:38;78192.82;;;-147.78;100.00
23341;BME280;12239;53.404;23.492;2023-04-06T10:51:11;78184.61;;;-147.78;100.00
23341;BME280;12239;53.404;23.492;2023-04-06T10:53:41;78178.46;;;-147.78;100.00
23341;BME280;12239;53.404;23.492;2023-04-06T10:56:12;78171.08;;;-147.78;100.00
23341;BME280;12239;53.404;23.492;2023-04-06T10:58:45;78175.17;;;-147.78;100.00
23341;BME280;12239;53.404;23.492;2023-04-06T11:01:15;78179.27;;;-147.78;100.00
23341;BME280;12239;53.404;23.492;2023-04-06T11:03:45;78173.54;;;-147.78;100.00
23341;BME280;12239;53.404;23.492;2023-04-06T11:06:19;78170.26;;;-147.78;100.00
23341;BME280;12239;53.404;23.492;2023-04-06T11:08:49;78173.13;;;-147.78;100.00
23341;BME280;12239;53.404;23.492;2023-04-06T11:11:19;78173.13;;;-147.78;100.00
23341;BME280;12239;53.404;23.492;2023-04-06T11:13:50;78166.56;;;-147.78;100.00
23341;BME280;12239;53.404;23.492;2023-04-06T11:16:29;78160.83;;;-147.78;100.00
23341;BME280;12239;53.404;23.492;2023-04-06T11:19:02;78155.49;;;-147.78;100.00
23341;BME280;12239;53.404;23.492;2023-04-06T11:21:52;78146.88;;;-147.78;100.00
23341;BME280;12239;53.404;23.492;2023-04-06T11:24:24;78147.29;;;-147.78;100.00
23341;BME280;12239;53.404;23.492;2023-04-06T11:26:54;78146.47;;;-147.78;100.00
23341;BME280;12239;53.404;23.492;2023-04-06T11:29:24;78153.45;;;-147.78;100.00
23341;BME280;12239;53.404;23.492;2023-04-06T11:31:58;78150.16;;;-147.78;100.00
23341;BME280;12239;53.404;23.492;2023-04-06T11:34:28;78141.96;;;-147.78;100.00
23341;BME280;12239;53.404;23.492;2023-04-06T11:36:57;78136.22;;;-147.78;100.00
23341;BME280;12239;53.404;23.492;2023-04-06T11:39:27;78123.91;;;-147.78;100.00
23341;BME280;12239;53.404;23.492;2023-04-06T11:42:00;78118.58;;;-147.78;100.00
23341;BME280;12239;53.404;23.492;2023-04-06T11:44:33;78112.84;;;-147.78;100.00
23341;BME280;12239;53.404;23.492;2023-04-06T11:47:03;78106.68;;;-147.78;100.00
23341;BME280;12239;53.404;23.492;2023-04-06T11:49:36;78104.64;;;-147.78;100.00
23341;BME280;12239;53.404;23.492;2023-04-06T11:52:14;78091.51;;;-147.78;100.00
23341;BME280;12239;53.404;23.492;2023-04-06T11:54:43;78089.05;;;-147.78;100.00
23341;BME280;12239;53.404;23.492;2023-04-06T11:57:13;78082.48;;;-147.78;100.00
23341;BME280;12239;53.404;23.492;2023-04-06T11:59:42;78075.52;;;-147.78;100.00
23341;BME280;12239;53.404;23.492;2023-04-06T12:02:14;78067.72;;;-147.78;100.00
23341;BME280;12239;53.404;23.492;2023-04-06T12:04:43;78061.56;;;-147.78;100.00
23341;BME280;12239;53.404;23.492;2023-04-06T12:07:33;78052.13;;;-147.78;100.00
23341;BME280;12239;53.404;23.492;2023-04-06T12:10:03;78042.70;;;-147.78;100.00
23341;BME280;12239;53.404;23.492;2023-04-06T12:12:33;78040.65;;;-147.78;100.00
23341;BME280;12239;53.404;23.492;2023-04-06T12:15:02;78039.83;;;-147.78;100.00
23341;BME280;12239;53.404;23.492;2023-04-06T12:17:35;78037.37;;;-147.78;100.00
23341;BME280;12239;53.404;23.492;2023-04-06T12:20:06;78034.91;;;-147.78;100.00
23341;BME280;12239;53.404;23.492;2023-04-06T12:22:35;78034.91;;;-147.78;100.00
23341;BME280;12239;53.404;23.492;2023-04-06T12:25:05;78035.31;;;-147.78;100.00
23341;BME280;12239;53.404;23.492;2023-04-06T12:27:35;78032.45;;;-147.78;100.00
23341;BME280;12239;53.404;23.492;2023-04-06T12:30:06;78031.63;;;-147.78;100.00
23341;BME280;12239;53.404;23.492;2023-04-06T12:32:38;78033.67;;;-147.78;100.00
23341;BME280;12239;53.404;23.492;2023-04-06T12:35:08;78033.67;;;-147.78;100.00
23341;BME280;12239;53.404;23.492;2023-04-06T12:37:42;78024.65;;;-147.78;100.00
23341;BME280;12239;53.404;23.492;2023-04-06T12:40:15;78021.78;;;-147.78;100.00
23341;BME280;12239;53.404;23.492;2023-04-06T12:42:44;78015.63;;;-147.78;100.00
23341;BME280;12239;53.404;23.492;2023-04-06T12:45:35;78005.38;;;-147.78;100.00
23341;BME280;12239;53.404;23.492;2023-04-06T12:48:04;78000.04;;;-147.78;100.00
23341;BME280;12239;53.404;23.492;2023-04-06T12:50:33;78000.86;;;-147.78;100.00
23341;BME280;12239;53.404;23.492;2023-04-06T12:53:03;77991.43;;;-147.78;100.00